Time;durP1;ratioP1;P1;durP2;ratioP2;P2;SDS_P1;SDS_P2;PMS_P1;PMS_P2;Temp;Humidity;BMP_temperature;BMP_pressure;BME280_temperature;BME280_humidity;BME280_pressure;Samples;Min_cycle;Max_cycle;Signal;HPM_P1;HPM_P2
2022/02/20 00:00:06;;;;;;;4.45;0.57;;;6.20;92.40;;;;;;5060789;28;20040;-78
2022/02/20 00:02:37;;;;;;;3.53;0.50;;;6.20;92.40;;;;;;5061897;28;20512;-78
2022/02/20 00:05:04;;;;;;;4.85;0.63;;;6.20;92.40;;;;;;5060952;28;20132;-78
2022/02/20 00:07:31;;;;;;;4.75;0.68;;;6.20;92.40;;;;;;5044154;28;20048;-78
2022/02/20 00:09:58;;;;;;;3.85;0.77;;;6.20;92.40;;;;;;5044135;28;20066;-79
2022/02/20 00:12:25;;;;;;;5.25;0.50;;;6.20;92.40;;;;;;5060861;28;20468;-78
2022/02/20 00:14:52;;;;;;;4.38;0.50;;;6.20;92.30;;;;;;5027730;28;20036;-79
2022/02/20 00:17:20;;;;;;;4.97;1.17;;;6.20;92.30;;;;;;5078605;28;20396;-78
2022/02/20 00:19:47;;;;;;;8.50;0.80;;;6.20;92.40;;;;;;5060457;28;20101;-78
2022/02/20 00:22:14;;;;;;;3.50;0.40;;;6.20;92.30;;;;;;5028045;28;20055;-78
2022/02/20 00:24:44;;;;;;;3.50;1.08;;;6.20;92.30;;;;;;5029202;28;20054;-78
2022/02/20 00:27:12;;;;;;;3.80;0.50;;;6.20;92.30;;;;;;5060838;28;20477;-78
2022/02/20 00:29:40;;;;;;;2.00;0.43;;;6.10;92.20;;;;;;5061618;28;20052;-76
2022/02/20 00:32:08;;;;;;;5.50;0.63;;;6.10;92.20;;;;;;5066868;28;20052;-79
2022/02/20 00:34:36;;;;;;;2.83;0.73;;;6.00;92.20;;;;;;5080559;28;20067;-78
2022/02/20 00:37:04;;;;;;;2.75;0.70;;;5.90;92.20;;;;;;5064365;28;20040;-78
2022/02/20 00:39:31;;;;;;;6.30;0.85;;;5.80;92.20;;;;;;5077574;28;20105;-78
2022/02/20 00:42:00;;;;;;;3.13;0.50;;;5.80;92.20;;;;;;5060910;28;20553;-78
2022/02/20 00:44:28;;;;;;;4.20;0.70;;;5.70;92.20;;;;;;5095436;28;20040;-75
2022/02/20 00:46:57;;;;;;;4.70;0.60;;;5.70;92.10;;;;;;5095118;28;20119;-76
2022/02/20 00:49:24;;;;;;;6.40;0.80;;;5.60;92.20;;;;;;5060599;28;20044;-78
2022/02/20 00:51:51;;;;;;;4.15;1.13;;;5.60;92.20;;;;;;5060713;28;20044;-78
2022/02/20 00:54:18;;;;;;;3.35;0.50;;;5.60;92.20;;;;;;5060774;28;20048;-79
2022/02/20 00:56:45;;;;;;;1.55;0.50;;;5.60;92.30;;;;;;5077122;28;20044;-79
2022/02/20 00:59:13;;;;;;;2.10;0.60;;;5.60;92.30;;;;;;5077233;28;20040;-79
2022/02/20 01:01:43;;;;;;;3.17;0.60;;;5.50;92.20;;;;;;5060620;28;20064;-79
2022/02/20 01:04:10;;;;;;;4.38;0.63;;;5.50;92.20;;;;;;5060511;28;20040;-78
2022/02/20 01:06:37;;;;;;;4.05;0.70;;;5.50;92.20;;;;;;5077039;28;20135;-79
2022/02/20 01:09:04;;;;;;;2.45;0.52;;;5.40;92.20;;;;;;5060602;28;20093;-79
2022/02/20 01:11:31;;;;;;;2.95;0.40;;;5.40;92.20;;;;;;5060181;28;20052;-78
2022/02/20 01:13:58;;;;;;;3.45;0.43;;;5.40;92.20;;;;;;5060307;28;20036;-78
2022/02/20 01:16:25;;;;;;;4.47;0.73;;;5.40;92.20;;;;;;5094837;28;20113;-79
2022/02/20 01:18:52;;;;;;;4.43;0.82;;;5.40;92.20;;;;;;5060334;28;20120;-78
2022/02/20 01:21:20;;;;;;;2.17;0.40;;;5.40;92.20;;;;;;5060217;28;20044;-78
2022/02/20 01:23:47;;;;;;;4.20;0.80;;;5.40;92.20;;;;;;5094790;28;20043;-78
2022/02/20 01:26:14;;;;;;;2.72;0.40;;;5.50;92.20;;;;;;5043460;28;20044;-78
2022/02/20 01:28:43;;;;;;;2.33;0.52;;;5.50;92.20;;;;;;5059787;28;20109;-79
2022/02/20 01:31:10;;;;;;;3.15;0.40;;;5.50;92.20;;;;;;5076716;28;20064;-79
2022/02/20 01:33:37;;;;;;;3.08;0.30;;;5.50;92.10;;;;;;5079557;28;20036;-78
2022/02/20 01:36:04;;;;;;;2.30;0.20;;;5.50;92.10;;;;;;5029476;28;20044;-78
2022/02/20 01:38:32;;;;;;;5.43;0.50;;;5.50;92.10;;;;;;5046261;28;20534;-79
2022/02/20 01:40:59;;;;;;;6.68;0.45;;;5.50;92.10;;;;;;5078573;28;20114;-78
2022/02/20 01:43:27;;;;;;;4.70;0.50;;;5.50;92.10;;;;;;5061966;28;20124;-79
2022/02/20 01:45:56;;;;;;;2.95;0.63;;;5.50;92.30;;;;;;5061636;28;20414;-79
2022/02/20 01:48:24;;;;;;;6.88;0.80;;;5.60;92.10;;;;;;5076299;28;20075;-79
2022/02/20 01:50:52;;;;;;;2.83;0.70;;;5.50;92.00;;;;;;5074844;28;20048;-78
2022/02/20 01:53:20;;;;;;;2.47;0.40;;;5.50;92.00;;;;;;5043280;28;20032;-78
2022/02/20 01:55:47;;;;;;;1.88;0.50;;;5.50;92.00;;;;;;5059310;28;20500;-78
2022/02/20 01:58:41;;;;;;;2.72;0.68;;;5.50;92.00;;;;;;5051551;28;20437;-78
2022/02/20 02:01:26;;;;;;;1.08;0.40;;;5.60;92.00;;;;;;5094021;28;20063;-79
2022/02/20 02:04:02;;;;;;;1.63;0.30;;;5.60;92.00;;;;;;5075696;28;20181;-79
2022/02/20 02:06:55;;;;;;;1.05;0.30;;;5.60;92.00;;;;;;5062819;28;20387;-79
2022/02/20 02:09:42;;;;;;;4.28;0.40;;;5.60;92.00;;;;;;5055401;28;20072;-78
2022/02/20 02:12:34;;;;;;;2.97;0.50;;;5.60;92.00;;;;;;5023386;28;20090;-79
2022/02/20 02:15:25;;;;;;;3.97;0.30;;;5.60;92.00;;;;;;5042586;28;20056;-78
2022/02/20 02:18:27;;;;;;;0.47;0.30;;;5.60;91.90;;;;;;5048867;28;20041;-76
2022/02/20 02:21:08;;;;;;;1.55;0.38;;;5.60;91.90;;;;;;5026514;28;20503;-76
2022/02/20 02:23:53;;;;;;;1.20;0.20;;;5.60;91.90;;;;;;5041102;28;20138;-76
2022/02/20 02:26:41;;;;;;;0.88;0.28;;;5.60;91.80;;;;;;5041145;28;20495;-76
2022/02/20 02:29:29;;;;;;;2.20;0.25;;;5.60;91.80;;;;;;5047014;28;20767;-76
2022/02/20 02:31:56;;;;;;;1.25;0.22;;;5.60;91.80;;;;;;5018809;28;20041;-76
2022/02/20 02:34:23;;;;;;;1.23;0.40;;;5.60;91.80;;;;;;5035122;28;20047;-76
2022/02/20 02:36:53;;;;;;;1.48;0.25;;;5.60;91.70;;;;;;5019307;28;20099;-76
2022/02/20 02:39:20;;;;;;;2.15;0.35;;;5.60;91.70;;;;;;5035351;28;20041;-76
2022/02/20 02:41:48;;;;;;;1.88;0.20;;;5.60;91.60;;;;;;5018653;28;20056;-76
2022/02/20 02:44:15;;;;;;;1.27;0.32;;;5.60;91.60;;;;;;5018585;28;20071;-76
2022/02/20 02:46:42;;;;;;;1.15;0.25;;;5.60;91.50;;;;;;5035257;28;20049;-76
2022/02/20 02:49:09;;;;;;;2.33;0.80;;;5.60;91.50;;;;;;5034888;28;20045;-79
2022/02/20 02:51:37;;;;;;;2.47;0.52;;;5.60;91.50;;;;;;5018796;28;20052;-79
2022/02/20 02:54:07;;;;;;;2.55;0.40;;;5.60;91.50;;;;;;5035031;28;20131;-79
2022/02/20 02:56:37;;;;;;;0.75;0.30;;;5.60;91.50;;;;;;5003099;28;20060;-79
2022/02/20 02:59:05;;;;;;;1.33;0.50;;;5.60;91.50;;;;;;5018536;28;20528;-79
2022/02/20 03:01:32;;;;;;;1.27;0.40;;;5.60;91.50;;;;;;5018248;28;20037;-79
2022/02/20 03:03:59;;;;;;;1.45;0.28;;;5.60;91.50;;;;;;5052670;28;20052;-79
2022/02/20 03:06:28;;;;;;;1.15;0.43;;;5.70;91.50;;;;;;5034899;28;20091;-79
2022/02/20 03:09:03;;;;;;;2.92;0.32;;;5.60;91.50;;;;;;5003759;28;20091;-79
2022/02/20 03:11:30;;;;;;;1.13;0.35;;;5.60;91.50;;;;;;5018746;28;20049;-79
2022/02/20 03:13:57;;;;;;;2.65;0.30;;;5.60;91.50;;;;;;5034997;28;20033;-79
2022/02/20 03:16:25;;;;;;;1.92;0.40;;;5.60;91.50;;;;;;5034677;28;20523;-79
2022/02/20 03:18:52;;;;;;;1.60;0.30;;;5.60;91.50;;;;;;5018272;28;20072;-79
2022/02/20 03:21:23;;;;;;;0.77;0.25;;;5.60;91.40;;;;;;5034645;28;20078;-79
2022/02/20 03:23:51;;;;;;;1.05;0.30;;;5.60;91.40;;;;;;5018539;28;20047;-79
2022/02/20 03:26:19;;;;;;;1.85;0.30;;;5.60;91.40;;;;;;5018494;28;20424;-79
2022/02/20 03:28:51;;;;;;;1.60;0.20;;;5.60;91.40;;;;;;5018372;28;20044;-79
2022/02/20 03:31:23;;;;;;;0.82;0.20;;;5.60;91.40;;;;;;5018887;28;20143;-79
2022/02/20 03:33:52;;;;;;;2.17;0.30;;;5.50;91.40;;;;;;5034519;28;20219;-77
2022/02/20 03:36:26;;;;;;;1.77;0.30;;;5.60;91.40;;;;;;5002613;28;20041;-76
2022/02/20 03:38:53;;;;;;;1.95;0.20;;;5.60;91.40;;;;;;5017881;28;20383;-77
2022/02/20 03:41:26;;;;;;;0.43;0.10;;;5.50;91.40;;;;;;5018525;28;20037;-76
2022/02/20 03:43:53;;;;;;;1.08;0.10;;;5.50;91.40;;;;;;5001344;28;20045;-77
2022/02/20 03:46:25;;;;;;;2.35;0.20;;;5.50;91.40;;;;;;5033679;28;20099;-76
2022/02/20 03:48:59;;;;;;;3.17;0.30;;;5.50;91.70;;;;;;5002962;28;20388;-76
2022/02/20 03:51:46;;;;;;;2.70;0.63;;;5.50;91.40;;;;;;5023013;28;20445;-76
2022/02/20 03:54:13;;;;;;;0.85;0.10;;;5.50;91.40;;;;;;5018097;28;20041;-76
2022/02/20 03:56:41;;;;;;;1.75;0.10;;;5.50;91.40;;;;;;5002004;28;20041;-76
2022/02/20 03:59:25;;;;;;;0.77;0.13;;;5.50;91.40;;;;;;5020236;28;20049;-76
2022/02/20 04:01:54;;;;;;;0.60;0.10;;;5.50;91.40;;;;;;4986679;28;20052;-76
2022/02/20 04:04:21;;;;;;;0.10;0.10;;;5.50;91.40;;;;;;5017854;28;20566;-76
2022/02/20 04:06:51;;;;;;;1.58;0.05;;;5.60;91.50;;;;;;5034712;28;20094;-76
2022/02/20 04:09:19;;;;;;;1.05;0.20;;;5.60;91.50;;;;;;5001913;28;20051;-76
2022/02/20 04:11:49;;;;;;;0.32;0.10;;;5.60;91.50;;;;;;5018142;28;20041;-76
2022/02/20 04:14:34;;;;;;;0.32;0.10;;;5.60;91.50;;;;;;5021214;28;20041;-76
2022/02/20 04:17:07;;;;;;;0.17;0.10;;;5.50;91.40;;;;;;5007194;28;20455;-76
2022/02/20 04:19:39;;;;;;;0.57;0.10;;;5.60;91.50;;;;;;5021704;28;20053;-76
2022/02/20 04:22:07;;;;;;;0.75;0.15;;;5.50;91.50;;;;;;5037768;28;20041;-76
2022/02/20 04:24:35;;;;;;;1.60;0.35;;;5.60;91.50;;;;;;5005418;28;20069;-76
2022/02/20 04:27:08;;;;;;;0.00;0.00;;;5.60;91.50;;;;;;5021813;28;20087;-77
2022/02/20 04:29:42;;;;;;;1.40;0.20;;;5.50;91.50;;;;;;5021696;28;20049;-76
2022/02/20 04:32:09;;;;;;;1.20;0.10;;;5.50;91.50;;;;;;5021787;28;20512;-77
2022/02/20 04:34:38;;;;;;;1.38;0.25;;;5.60;91.50;;;;;;5023803;28;20555;-77
2022/02/20 04:37:05;;;;;;;0.43;0.20;;;5.50;91.50;;;;;;5038691;28;20072;-77
2022/02/20 04:39:33;;;;;;;1.00;0.28;;;5.50;91.50;;;;;;5022979;28;20045;-76
2022/02/20 04:42:02;;;;;;;0.43;0.13;;;5.50;91.50;;;;;;5033405;28;20114;-76
2022/02/20 04:44:58;;;;;;;2.45;0.30;;;5.50;91.50;;;;;;5050499;28;20053;-79
2022/02/20 04:47:31;;;;;;;1.45;0.20;;;5.50;91.80;;;;;;5025393;28;20128;-79
2022/02/20 04:49:58;;;;;;;1.77;0.20;;;5.50;91.50;;;;;;5037156;28;20053;-79
2022/02/20 04:52:45;;;;;;;1.20;0.25;;;5.50;91.50;;;;;;5009016;28;20124;-79
2022/02/20 04:55:18;;;;;;;2.22;0.40;;;5.50;91.50;;;;;;5037142;28;20049;-79
2022/02/20 04:57:48;;;;;;;4.28;0.60;;;5.50;91.50;;;;;;5021226;28;20037;-79
2022/02/20 05:00:19;;;;;;;1.63;0.50;;;5.50;91.40;;;;;;5021125;28;20057;-79
2022/02/20 05:02:58;;;;;;;3.63;0.50;;;5.50;91.40;;;;;;5024574;28;20060;-79
2022/02/20 05:05:29;;;;;;;2.90;0.52;;;5.60;91.40;;;;;;5021153;28;20171;-79
2022/02/20 05:07:57;;;;;;;1.20;0.43;;;5.50;91.30;;;;;;5004369;28;20465;-79
2022/02/20 05:10:25;;;;;;;1.42;0.40;;;5.50;91.40;;;;;;5003372;28;20051;-79
2022/02/20 05:12:52;;;;;;;3.13;0.60;;;5.50;91.40;;;;;;5004088;28;20049;-79
2022/02/20 05:15:19;;;;;;;2.47;0.60;;;5.50;91.40;;;;;;5020377;28;20052;-79
2022/02/20 05:17:54;;;;;;;1.00;0.40;;;5.40;91.50;;;;;;5021329;28;20073;-79
2022/02/20 05:20:21;;;;;;;1.92;0.50;;;5.40;91.60;;;;;;5020265;28;20044;-79
2022/02/20 05:22:53;;;;;;;3.03;0.63;;;5.40;91.70;;;;;;5036779;28;20068;-80
2022/02/20 05:25:21;;;;;;;1.73;0.68;;;5.30;91.70;;;;;;5019951;28;20049;-79
2022/02/20 05:27:49;;;;;;;1.33;0.50;;;5.30;91.80;;;;;;5020346;28;20053;-78
2022/02/20 05:30:20;;;;;;;2.97;0.80;;;5.30;91.80;;;;;;5020619;28;20472;-78
2022/02/20 05:33:02;;;;;;;3.80;0.80;;;5.30;91.90;;;;;;5042145;28;20068;-79
2022/02/20 05:35:34;;;;;;;1.77;0.70;;;5.20;91.90;;;;;;5009190;28;20451;-78
2022/02/20 05:38:02;;;;;;;1.80;0.70;;;5.20;91.90;;;;;;5056087;28;20427;-78
2022/02/20 05:40:31;;;;;;;3.42;0.88;;;5.20;92.00;;;;;;5056966;28;20045;-77
2022/02/20 05:43:06;;;;;;;2.67;0.90;;;5.20;92.10;;;;;;5060113;28;20579;-76
2022/02/20 05:45:35;;;;;;;3.42;0.95;;;5.20;92.10;;;;;;5039950;28;20044;-77
2022/02/20 05:48:17;;;;;;;3.30;1.00;;;5.20;92.10;;;;;;5041780;28;20052;-77
2022/02/20 05:51:05;;;;;;;2.88;1.00;;;5.20;92.20;;;;;;5042352;28;20493;-76
2022/02/20 05:53:38;;;;;;;2.50;1.10;;;5.20;92.20;;;;;;5040363;28;20523;-76
2022/02/20 05:56:06;;;;;;;2.47;1.05;;;5.20;92.30;;;;;;5023187;28;20044;-76
2022/02/20 05:58:55;;;;;;;3.00;1.05;;;5.20;92.30;;;;;;5055632;28;20519;-76
2022/02/20 06:01:22;;;;;;;3.55;1.17;;;5.20;92.40;;;;;;5039318;28;20056;-75
2022/02/20 06:03:55;;;;;;;3.17;0.90;;;5.20;92.40;;;;;;5039917;28;20143;-75
2022/02/20 06:06:45;;;;;;;3.63;1.55;;;5.30;92.40;;;;;;5051236;28;20052;-76
2022/02/20 06:09:31;;;;;;;4.63;2.00;;;5.30;92.50;;;;;;5027997;28;20049;-76
2022/02/20 06:12:13;;;;;;;4.00;1.35;;;5.30;92.50;;;;;;5041182;28;20496;-76
2022/02/20 06:14:58;;;;;;;2.50;1.10;;;5.30;92.50;;;;;;5030829;28;20507;-76
2022/02/20 06:17:44;;;;;;;4.38;1.45;;;5.30;92.60;;;;;;5055403;28;20068;-76
2022/02/20 06:20:37;;;;;;;;;;;5.30;92.60;;;;;;5037083;28;20052;-76
2022/02/20 06:23:19;;;;;;;5.03;1.20;;;5.30;92.60;;;;;;5073313;28;19935;-76
2022/02/20 06:26:04;;;;;;;5.65;2.25;;;5.30;92.60;;;;;;5058773;28;20467;-76
2022/02/20 06:28:32;;;;;;;3.33;1.45;;;5.40;92.70;;;;;;5054900;28;20054;-76
2022/02/20 06:31:03;;;;;;;5.20;1.70;;;5.40;92.70;;;;;;5035277;28;20122;-77
2022/02/20 06:33:33;;;;;;;6.03;1.95;;;5.40;92.80;;;;;;5019433;28;20051;-78
2022/02/20 06:36:06;;;;;;;4.90;2.13;;;5.40;92.80;;;;;;5019440;28;20095;-79
2022/02/20 06:38:36;;;;;;;4.20;1.80;;;5.50;92.90;;;;;;5019011;28;20075;-81
2022/02/20 06:41:03;;;;;;;6.05;1.80;;;5.50;93.00;;;;;;4986837;28;20095;-80
2022/02/20 06:43:36;;;;;;;5.55;1.30;;;5.60;93.10;;;;;;5019712;28;20711;-80
2022/02/20 06:46:23;;;;;;;5.07;1.65;;;5.60;93.00;;;;;;5037910;28;20049;-80
2022/02/20 06:49:09;;;;;;;5.15;1.65;;;5.60;93.10;;;;;;5037785;28;20052;-81
2022/02/20 06:51:52;;;;;;;6.90;2.58;;;5.70;93.20;;;;;;5034844;28;20159;-82
2022/02/20 06:54:37;;;;;;;9.10;2.97;;;5.70;93.20;;;;;;5021083;28;20053;-81
2022/02/20 06:57:16;;;;;;;6.22;1.70;;;5.80;93.30;;;;;;4990402;28;20037;-81
2022/02/20 06:59:46;;;;;;;5.07;1.85;;;5.80;93.30;;;;;;5035026;28;20029;-81
2022/02/20 07:02:18;;;;;;;8.07;2.88;;;5.80;93.40;;;;;;5034656;28;20049;-81
2022/02/20 07:04:56;;;;;;;6.68;1.98;;;5.90;93.50;;;;;;5034823;28;20045;-83
2022/02/20 07:11:35;;;;;;;8.38;2.17;;;6.00;93.70;;;;;;4933376;29;20046;-83
2022/02/20 07:14:11;;;;;;;6.70;1.77;;;6.10;93.80;;;;;;4953688;28;20074;-82
2022/02/20 07:17:05;;;;;;;6.20;1.52;;;6.10;93.80;;;;;;4959594;28;20121;-82
2022/02/20 07:19:38;;;;;;;5.45;1.80;;;6.20;93.70;;;;;;5035045;28;20076;-83
2022/02/20 07:22:22;;;;;;;8.18;1.70;;;6.20;93.80;;;;;;5034799;28;20036;-83
2022/02/20 07:25:14;;;;;;;7.45;1.90;;;6.30;94.00;;;;;;5037802;28;20033;-83
2022/02/20 07:27:55;;;;;;;5.40;1.30;;;6.40;94.10;;;;;;5004671;28;20409;-82
2022/02/20 07:30:28;;;;;;;7.38;1.75;;;6.50;94.10;;;;;;5052970;28;20095;-83
2022/02/20 07:33:16;;;;;;;5.95;1.95;;;6.50;94.30;;;;;;5035194;28;20063;-82
2022/02/20 07:35:57;;;;;;;4.30;1.10;;;6.60;94.30;;;;;;5018546;28;20056;-81
2022/02/20 07:39:05;;;;;;;6.28;1.70;;;6.60;94.20;;;;;;5009797;28;20045;-82
2022/02/20 07:41:38;;;;;;;3.70;1.58;;;6.60;94.40;;;;;;5018716;28;20103;-80
2022/02/20 07:44:08;;;;;;;5.15;1.27;;;6.70;94.40;;;;;;5018579;28;20090;-80
2022/02/20 07:46:37;;;;;;;7.88;1.67;;;6.80;94.50;;;;;;5034756;28;20045;-79
2022/02/20 07:49:05;;;;;;;4.18;0.80;;;6.80;94.50;;;;;;5017149;28;20029;-79
2022/02/20 07:51:33;;;;;;;5.22;1.42;;;6.90;94.60;;;;;;5032799;28;20048;-78
2022/02/20 07:54:00;;;;;;;3.78;1.00;;;6.90;94.50;;;;;;5076680;28;20044;-78
2022/02/20 07:56:27;;;;;;;5.07;1.33;;;7.00;94.60;;;;;;5073266;28;20045;-78
2022/02/20 07:58:54;;;;;;;3.65;1.40;;;7.10;94.70;;;;;;5043407;28;20055;-77
2022/02/20 08:01:21;;;;;;;3.80;1.13;;;7.10;94.80;;;;;;5066600;28;20055;-77
2022/02/20 08:03:49;;;;;;;4.97;1.48;;;7.20;95.00;;;;;;5057647;28;20076;-77
2022/02/20 08:06:19;;;;;;;3.85;1.00;;;7.30;95.00;;;;;;5038063;28;20459;-77
2022/02/20 08:08:46;;;;;;;2.55;0.82;;;7.30;95.00;;;;;;5038633;28;20036;-77
2022/02/20 08:11:15;;;;;;;5.85;1.50;;;7.40;95.00;;;;;;5054442;28;20040;-77
2022/02/20 08:13:42;;;;;;;4.50;0.98;;;7.50;95.10;;;;;;5037973;28;20037;-77
2022/02/20 08:16:10;;;;;;;4.90;1.05;;;7.60;95.10;;;;;;5054630;28;20075;-77
2022/02/20 08:18:37;;;;;;;5.82;1.17;;;7.60;95.10;;;;;;5054506;28;20095;-77
2022/02/20 08:21:04;;;;;;;3.40;1.10;;;7.70;95.20;;;;;;5037758;28;20378;-77
2022/02/20 08:23:42;;;;;;;3.88;0.90;;;7.80;95.30;;;;;;5055570;28;20090;-78
2022/02/20 08:26:09;;;;;;;6.60;1.20;;;7.80;95.20;;;;;;5055625;28;20547;-77
2022/02/20 08:28:37;;;;;;;4.20;1.85;;;7.90;95.30;;;;;;5053839;28;20052;-78
2022/02/20 08:31:07;;;;;;;5.22;1.42;;;8.00;95.30;;;;;;5037594;28;20041;-78
2022/02/20 08:33:38;;;;;;;4.65;1.30;;;8.00;95.40;;;;;;5053859;28;20465;-77
2022/02/20 08:36:19;;;;;;;2.80;1.30;;;8.10;95.60;;;;;;5055490;28;20049;-78
2022/02/20 08:38:49;;;;;;;4.72;1.50;;;8.20;95.60;;;;;;5053958;28;20080;-77
2022/02/20 08:41:19;;;;;;;4.07;2.17;;;8.20;95.70;;;;;;5054200;28;20088;-77
2022/02/20 08:43:49;;;;;;;3.47;1.60;;;8.30;95.90;;;;;;5054006;28;20048;-77
2022/02/20 08:46:17;;;;;;;3.08;1.25;;;8.30;95.80;;;;;;5037134;28;20385;-76
2022/02/20 08:48:58;;;;;;;4.88;1.70;;;8.40;95.80;;;;;;5037275;28;20048;-78
2022/02/20 08:51:35;;;;;;;6.18;2.35;;;8.40;96.00;;;;;;5053753;28;20057;-78
2022/02/20 08:54:02;;;;;;;7.13;2.10;;;8.50;96.00;;;;;;5020572;28;20489;-76
2022/02/20 08:56:29;;;;;;;6.82;3.13;;;8.50;96.00;;;;;;5053580;28;20083;-76
2022/02/20 08:58:59;;;;;;;5.75;2.83;;;8.60;96.10;;;;;;5036836;28;20029;-76
2022/02/20 09:01:28;;;;;;;6.18;2.58;;;8.60;96.20;;;;;;5053821;28;20520;-76
2022/02/20 09:04:14;;;;;;;5.95;2.90;;;8.70;96.20;;;;;;5054754;28;20051;-76
2022/02/20 09:06:41;;;;;;;6.00;2.85;;;8.70;96.10;;;;;;5036901;28;20065;-77
2022/02/20 09:09:08;;;;;;;6.90;3.33;;;8.80;96.20;;;;;;5054859;28;20071;-78
2022/02/20 09:11:36;;;;;;;5.57;3.00;;;8.80;96.20;;;;;;5054675;28;20037;-77
2022/02/20 09:14:04;;;;;;;5.93;3.05;;;8.90;96.20;;;;;;5053326;28;20421;-77
2022/02/20 09:16:38;;;;;;;12.43;4.95;;;8.90;96.20;;;;;;5054689;28;20124;-77
2022/02/20 09:19:06;;;;;;;7.97;4.28;;;8.90;96.20;;;;;;5053116;28;20570;-76
2022/02/20 09:21:33;;;;;;;10.65;4.22;;;9.00;96.30;;;;;;5036366;28;20104;-75
2022/02/20 09:24:01;;;;;;;10.63;5.53;;;9.00;96.30;;;;;;5052791;28;20048;-75
2022/02/20 09:26:33;;;;;;;12.90;5.25;;;9.10;96.40;;;;;;5036261;28;20447;-75
2022/02/20 09:29:00;;;;;;;14.00;5.22;;;9.10;96.40;;;;;;5035912;28;20455;-76
2022/02/20 09:31:27;;;;;;;15.80;5.28;;;9.10;96.40;;;;;;5036013;28;20094;-75
2022/02/20 09:33:54;;;;;;;12.23;5.35;;;9.20;96.30;;;;;;5052608;28;20049;-76
2022/02/20 09:36:21;;;;;;;14.13;5.50;;;9.20;96.40;;;;;;5052239;28;20036;-75
2022/02/20 09:38:51;;;;;;;11.45;5.38;;;9.30;96.30;;;;;;5052319;28;20075;-76
2022/02/20 09:41:19;;;;;;;10.18;5.35;;;9.30;96.30;;;;;;5035788;28;20072;-75
2022/02/20 09:43:47;;;;;;;12.25;6.20;;;9.30;96.30;;;;;;5035708;28;20114;-75
2022/02/20 09:46:20;;;;;;;11.73;6.60;;;9.40;96.30;;;;;;5053694;28;20111;-75
2022/02/20 09:48:54;;;;;;;17.27;6.47;;;9.40;96.30;;;;;;5052281;28;20049;-75
2022/02/20 09:51:22;;;;;;;14.70;7.22;;;9.50;96.30;;;;;;5035401;28;20077;-75
2022/02/20 09:53:49;;;;;;;15.40;7.28;;;9.50;96.20;;;;;;5035198;28;20103;-75
2022/02/20 09:56:19;;;;;;;13.95;6.97;;;9.60;96.20;;;;;;5053078;28;20458;-74
2022/02/20 09:58:46;;;;;;;14.82;6.32;;;9.60;96.10;;;;;;5035417;28;20037;-75
2022/02/20 10:01:14;;;;;;;16.88;6.75;;;9.70;96.10;;;;;;5035084;28;20041;-75
2022/02/20 10:03:43;;;;;;;17.33;7.10;;;9.70;96.00;;;;;;5052711;28;20052;-75
2022/02/20 10:06:14;;;;;;;17.35;8.25;;;9.70;96.00;;;;;;5051577;28;20048;-74
2022/02/20 10:08:43;;;;;;;15.75;6.07;;;9.80;95.90;;;;;;5051382;28;20053;-75
2022/02/20 10:11:21;;;;;;;15.50;6.15;;;9.80;95.90;;;;;;5050861;28;20458;-74
2022/02/20 10:14:14;;;;;;;15.20;5.82;;;9.90;95.80;;;;;;5051460;28;20041;-75
2022/02/20 10:16:42;;;;;;;19.17;5.95;;;9.90;95.80;;;;;;5051316;28;20053;-74
2022/02/20 10:19:32;;;;;;;21.23;6.18;;;9.90;95.70;;;;;;5031131;28;20047;-75
2022/02/20 10:22:35;;;;;;;20.23;6.95;;;10.00;95.60;;;;;;5052425;28;20095;-75
2022/02/20 10:25:21;;;;;;;;;;;10.00;95.60;;;;;;5052558;28;20059;-77
2022/02/20 10:28:07;;;;;;;17.67;6.05;;;10.00;95.50;;;;;;5052684;28;19997;-77
2022/02/20 10:30:43;;;;;;;22.80;5.57;;;10.00;95.40;;;;;;5034320;28;20060;-74
2022/02/20 10:33:16;;;;;;;18.35;5.72;;;10.10;95.40;;;;;;5052325;28;20037;-74
2022/02/20 10:35:47;;;;;;;18.73;5.65;;;10.10;95.30;;;;;;5060394;28;20647;-74
2022/02/20 10:38:19;;;;;;;19.13;5.45;;;10.10;95.30;;;;;;5070368;28;20100;-74
2022/02/20 10:40:47;;;;;;;;;;;10.20;95.20;;;;;;5064610;28;20053;-75
2022/02/20 10:43:26;;;;;;;23.02;5.95;;;10.10;95.20;;;;;;5051370;28;19960;-74
2022/02/20 10:46:09;;;;;;;18.48;5.65;;;10.10;95.10;;;;;;5049031;28;20056;-74
2022/02/20 10:48:39;;;;;;;23.05;5.88;;;10.20;95.10;;;;;;5044130;28;20416;-74
2022/02/20 10:51:06;;;;;;;15.90;4.75;;;10.10;95.00;;;;;;5052100;28;20041;-74
2022/02/20 10:53:34;;;;;;;18.75;4.40;;;10.10;95.00;;;;;;5051870;28;20033;-74
2022/02/20 10:56:02;;;;;;;24.10;6.50;;;10.10;95.00;;;;;;5034132;28;20047;-74
2022/02/20 10:58:35;;;;;;;19.52;5.15;;;10.10;95.00;;;;;;5034433;28;20064;-75
2022/02/20 11:01:04;;;;;;;23.75;6.32;;;10.10;95.10;;;;;;5034944;28;20507;-75
2022/02/20 11:03:36;;;;;;;19.15;5.85;;;10.00;95.10;;;;;;5052185;28;20394;-75
2022/02/20 11:06:05;;;;;;;16.25;5.22;;;10.00;95.20;;;;;;5052622;28;20049;-76
2022/02/20 11:08:32;;;;;;;21.00;6.18;;;10.00;95.30;;;;;;5018584;28;20437;-76
2022/02/20 11:11:36;;;;;;;23.55;5.35;;;10.00;95.30;;;;;;5018176;28;20068;-76
2022/02/20 11:13:46;;;;;;;25.60;6.28;;;9.90;95.40;;;;;;5037756;28;20091;-76
2022/02/20 11:16:14;;;;;;;23.60;6.43;;;9.90;95.40;;;;;;5002431;28;20044;-76
2022/02/20 11:18:45;;;;;;;23.98;5.75;;;9.90;95.40;;;;;;5020102;28;20087;-76
2022/02/20 11:21:14;;;;;;;21.33;5.05;;;9.90;95.50;;;;;;5034343;28;20052;-77
2022/02/20 11:23:43;;;;;;;19.95;4.57;;;9.90;95.50;;;;;;5034306;28;20045;-76
2022/02/20 11:26:14;;;;;;;24.55;5.18;;;9.90;95.50;;;;;;5052101;28;20079;-78
2022/02/20 11:28:43;;;;;;;;;;;9.90;95.60;;;;;;5034451;28;20095;-79
2022/02/20 11:31:11;;;;;;;25.17;5.80;;;9.90;95.60;;;;;;5052197;28;20035;-80
2022/02/20 11:33:46;;;;;;;27.85;5.32;;;9.90;95.70;;;;;;5018397;28;20072;-81
2022/02/20 11:36:33;;;;;;;19.20;4.53;;;9.90;95.70;;;;;;5036805;28;20067;-80
2022/02/20 11:39:13;;;;;;;20.92;4.47;;;9.90;95.70;;;;;;5017753;28;20061;-77
2022/02/20 11:42:10;;;;;;;22.30;5.28;;;9.90;95.70;;;;;;5018344;28;20073;-76
2022/02/20 11:44:53;;;;;;;13.10;3.42;;;9.90;95.70;;;;;;5033986;28;20045;-75
2022/02/20 11:47:43;;;;;;;13.48;4.15;;;9.90;95.80;;;;;;5034343;28;20388;-75
2022/02/20 11:50:20;;;;;;;16.42;3.38;;;9.90;95.80;;;;;;5051838;28;20069;-75
2022/02/20 11:52:49;;;;;;;17.20;3.65;;;9.90;95.90;;;;;;5034224;28;20500;-75
2022/02/20 11:55:29;;;;;;;12.70;3.28;;;9.90;95.90;;;;;;5033679;28;20078;-77
2022/02/20 11:58:29;;;;;;;11.30;3.28;;;9.90;96.00;;;;;;5034284;28;20152;-77
2022/02/20 12:01:03;;;;;;;18.75;3.47;;;9.90;95.90;;;;;;4998486;28;20057;-77
2022/02/20 12:03:43;;;;;;;19.35;2.70;;;9.90;95.90;;;;;;5034313;28;20037;-77
2022/02/20 12:06:15;;;;;;;13.18;3.10;;;9.90;95.90;;;;;;5033944;28;20045;-77
2022/02/20 12:08:47;;;;;;;20.90;3.58;;;9.90;96.00;;;;;;5034887;28;20112;-76
2022/02/20 12:11:49;;;;;;;18.30;3.80;;;9.90;96.00;;;;;;5034016;28;20045;-81
2022/02/20 12:14:26;;;;;;;14.60;3.60;;;9.90;96.10;;;;;;5019124;28;20572;-77
2022/02/20 12:17:06;;;;;;;15.63;3.83;;;9.80;96.10;;;;;;5051830;28;20530;-77
2022/02/20 12:19:39;;;;;;;14.15;3.45;;;9.80;96.20;;;;;;5019666;28;20048;-77
2022/02/20 12:22:09;;;;;;;16.88;3.45;;;9.80;96.20;;;;;;5033944;28;20045;-77
2022/02/20 12:24:41;;;;;;;15.25;3.92;;;9.80;96.20;;;;;;5033945;28;20051;-77
2022/02/20 12:27:22;;;;;;;15.25;3.85;;;9.80;96.20;;;;;;5051820;28;20048;-77
2022/02/20 12:30:24;;;;;;;21.70;4.30;;;9.80;96.30;;;;;;5044707;28;20049;-77
2022/02/20 12:32:59;;;;;;;16.80;4.25;;;9.80;96.60;;;;;;5050172;28;20056;-78
2022/02/20 12:35:27;;;;;;;19.35;4.30;;;9.70;96.30;;;;;;5038523;28;20110;-76
2022/02/20 12:37:55;;;;;;;18.70;4.75;;;9.70;96.40;;;;;;5075323;28;20094;-76
2022/02/20 12:40:27;;;;;;;18.55;4.90;;;9.70;96.50;;;;;;5057248;28;20037;-79
2022/02/20 12:43:07;;;;;;;11.15;3.08;;;9.70;96.50;;;;;;5057682;28;20040;-78
2022/02/20 12:45:37;;;;;;;16.00;3.83;;;9.70;96.50;;;;;;5040953;28;20504;-79
2022/02/20 12:48:07;;;;;;;15.40;3.63;;;9.70;96.50;;;;;;5057468;28;20544;-79
2022/02/20 12:50:41;;;;;;;15.02;3.67;;;9.70;96.50;;;;;;5075225;28;20127;-79
2022/02/20 12:53:09;;;;;;;13.57;3.28;;;9.60;96.60;;;;;;5057079;28;20200;-75
2022/02/20 12:55:38;;;;;;;15.93;4.28;;;9.60;96.70;;;;;;5074907;28;20045;-76
2022/02/20 12:58:10;;;;;;;13.82;4.05;;;9.60;96.70;;;;;;5057039;28;20044;-76
2022/02/20 13:00:40;;;;;;;16.52;3.60;;;9.60;96.80;;;;;;5074935;28;20147;-76
2022/02/20 13:03:16;;;;;;;13.00;3.15;;;9.60;97.00;;;;;;5074829;28;20135;-76
2022/02/20 13:05:47;;;;;;;12.38;3.45;;;9.60;96.70;;;;;;5051492;28;20077;-76
2022/02/20 13:08:17;;;;;;;13.70;3.88;;;9.60;96.70;;;;;;5077530;28;20495;-76
2022/02/20 13:10:47;;;;;;;15.68;3.67;;;9.60;96.70;;;;;;5077368;28;20040;-76
2022/02/20 13:13:23;;;;;;;12.65;4.07;;;9.60;96.80;;;;;;5077130;28;20044;-76
2022/02/20 13:15:58;;;;;;;19.23;4.93;;;9.60;96.80;;;;;;5078143;28;20087;-76
2022/02/20 13:18:29;;;;;;;16.90;3.53;;;9.60;96.80;;;;;;5094957;28;20480;-74
2022/02/20 13:21:00;;;;;;;12.85;3.47;;;9.60;96.90;;;;;;5059581;28;20151;-74
2022/02/20 13:23:36;;;;;;;15.63;4.45;;;9.60;96.90;;;;;;5094126;28;20044;-75
2022/02/20 13:26:17;;;;;;;12.20;3.33;;;9.60;96.90;;;;;;5094233;28;20070;-76
2022/02/20 13:28:49;;;;;;;10.23;3.30;;;9.60;96.90;;;;;;5058970;28;20052;-75